Time;durP1;ratioP1;P1;durP2;ratioP2;P2;SDS_P1;SDS_P2;PMS_P1;PMS_P2;Temp;Humidity;BMP_temperature;BMP_pressure;BME280_temperature;BME280_humidity;BME280_pressure;Samples;Min_cycle;Max_cycle;Signal;HPM_P1;HPM_P2
2022/04/12 00:00:29;;;;;;;7.38;2.47;;;6.30;99.90;;;;;;4901608;29;20058;-77
2022/04/12 00:02:54;;;;;;;6.65;2.63;;;6.30;99.90;;;;;;4901625;29;20048;-77
2022/04/12 00:05:20;;;;;;;5.10;2.92;;;6.30;99.90;;;;;;4901406;29;20397;-76
2022/04/12 00:07:46;;;;;;;4.78;2.33;;;6.30;99.90;;;;;;4901679;29;20083;-77
2022/04/12 00:10:13;;;;;;;6.13;2.72;;;6.30;99.90;;;;;;4918449;29;20055;-77
2022/04/12 00:12:39;;;;;;;6.22;3.00;;;6.20;99.90;;;;;;4918363;29;20036;-77
2022/04/12 00:15:06;;;;;;;5.63;2.78;;;6.20;99.90;;;;;;4901609;29;20480;-77
2022/04/12 00:20:18;;;;;;;7.03;2.75;;;6.20;99.90;;;;;;4918322;29;20075;-77
2022/04/12 00:22:44;;;;;;;5.65;2.30;;;6.20;99.90;;;;;;4901001;29;20519;-76
2022/04/12 00:25:10;;;;;;;6.45;2.25;;;6.20;99.90;;;;;;4901418;29;20055;-77
2022/04/12 00:27:38;;;;;;;4.38;2.83;;;6.20;99.90;;;;;;4917925;29;20529;-76
2022/04/12 00:30:05;;;;;;;5.03;3.17;;;6.20;99.90;;;;;;4918094;29;20091;-76
2022/04/12 00:32:31;;;;;;;6.57;3.08;;;6.20;99.90;;;;;;4918068;29;20048;-77
2022/04/12 00:34:56;;;;;;;6.90;3.10;;;6.10;99.90;;;;;;4917898;29;20040;-76
2022/04/12 00:37:22;;;;;;;5.82;2.83;;;6.10;99.90;;;;;;4900922;29;20131;-77
2022/04/12 00:39:48;;;;;;;7.20;2.90;;;6.20;99.90;;;;;;4901159;29;20059;-76
2022/04/12 00:42:13;;;;;;;7.05;3.10;;;6.10;99.90;;;;;;4916749;29;20058;-77
2022/04/12 00:44:39;;;;;;;7.85;3.25;;;6.10;99.90;;;;;;4917896;29;20056;-78
2022/04/12 00:47:05;;;;;;;5.47;3.03;;;6.10;99.90;;;;;;4917863;29;20119;-78
2022/04/12 00:49:31;;;;;;;6.40;3.17;;;6.10;99.90;;;;;;4917705;29;20056;-77
2022/04/12 00:51:57;;;;;;;7.43;2.92;;;6.10;99.90;;;;;;4901025;29;20055;-77
2022/04/12 00:54:23;;;;;;;5.93;2.92;;;6.00;99.90;;;;;;4900697;29;20381;-77
2022/04/12 00:56:51;;;;;;;6.90;3.00;;;6.00;99.90;;;;;;4917643;29;20123;-77
2022/04/12 00:59:19;;;;;;;8.27;3.33;;;6.00;99.90;;;;;;4900533;29;20060;-77
2022/04/12 01:01:44;;;;;;;6.00;2.80;;;6.00;99.90;;;;;;4917654;29;20081;-77
2022/04/12 01:04:10;;;;;;;7.75;2.92;;;6.00;99.90;;;;;;4900847;29;20076;-77
2022/04/12 01:06:37;;;;;;;5.15;2.72;;;6.00;99.90;;;;;;4900522;29;20048;-78
2022/04/12 01:09:05;;;;;;;5.90;2.85;;;6.00;99.90;;;;;;4917498;29;20103;-77
2022/04/12 01:11:33;;;;;;;5.45;2.95;;;5.90;99.90;;;;;;4917528;29;20048;-77
2022/04/12 01:13:59;;;;;;;8.82;3.10;;;5.90;99.90;;;;;;4917471;29;20084;-77
2022/04/12 01:16:25;;;;;;;5.90;2.65;;;5.90;99.90;;;;;;4917439;29;20055;-77
2022/04/12 01:18:51;;;;;;;5.07;2.95;;;5.90;99.90;;;;;;4917432;29;20052;-77
2022/04/12 01:21:16;;;;;;;6.22;3.35;;;5.90;99.90;;;;;;4900450;29;20048;-77
2022/04/12 01:24:04;;;;;;;5.28;2.92;;;5.90;99.90;;;;;;4900527;29;20061;-77
2022/04/12 01:26:30;;;;;;;7.75;2.92;;;5.90;99.90;;;;;;4917560;29;20055;-77
2022/04/12 01:28:56;;;;;;;7.70;4.18;;;5.90;99.90;;;;;;4917445;29;20044;-77
2022/04/12 01:31:26;;;;;;;8.57;4.00;;;5.90;99.90;;;;;;4900344;29;20052;-77
2022/04/12 01:33:53;;;;;;;5.38;2.85;;;5.90;99.90;;;;;;4900786;29;20449;-77
2022/04/12 01:36:19;;;;;;;9.88;4.43;;;5.90;99.90;;;;;;4917032;29;20123;-77
2022/04/12 01:38:45;;;;;;;7.85;3.30;;;5.80;99.90;;;;;;4900165;29;20052;-77
2022/04/12 01:41:11;;;;;;;6.65;3.55;;;5.80;99.90;;;;;;4916961;29;20059;-77
2022/04/12 01:43:37;;;;;;;8.00;3.55;;;5.80;99.90;;;;;;4900197;29;20292;-77
2022/04/12 01:46:02;;;;;;;7.45;4.18;;;5.80;99.90;;;;;;4900176;29;20052;-77
2022/04/12 01:48:28;;;;;;;8.13;3.70;;;5.80;99.90;;;;;;4917230;29;20044;-77
2022/04/12 01:50:54;;;;;;;5.97;3.38;;;5.80;99.90;;;;;;4917198;29;20132;-77
2022/04/12 01:53:20;;;;;;;7.97;3.97;;;5.80;99.90;;;;;;4902719;29;20055;-77
2022/04/12 01:55:45;;;;;;;7.80;3.63;;;5.80;99.90;;;;;;4903782;29;20460;-77
2022/04/12 01:58:11;;;;;;;9.52;4.15;;;5.80;99.90;;;;;;4903694;29;20136;-77
2022/04/12 02:00:37;;;;;;;7.57;4.95;;;5.90;99.90;;;;;;4920760;29;20495;-77
2022/04/12 02:03:03;;;;;;;9.00;4.15;;;5.90;99.90;;;;;;4920708;29;20131;-77
2022/04/12 02:05:29;;;;;;;7.20;4.53;;;5.80;99.90;;;;;;4920659;29;20132;-77
2022/04/12 02:07:55;;;;;;;8.88;4.28;;;5.90;99.90;;;;;;4920644;29;20059;-77
2022/04/12 02:10:22;;;;;;;6.80;4.25;;;5.80;99.90;;;;;;4903573;29;20048;-77
2022/04/12 02:12:49;;;;;;;8.48;4.22;;;5.80;99.90;;;;;;4903749;29;20091;-77
2022/04/12 02:15:15;;;;;;;8.45;4.88;;;5.80;99.90;;;;;;4920500;29;20048;-77
2022/04/12 02:17:40;;;;;;;8.32;4.88;;;5.80;99.90;;;;;;4920367;29;20404;-77
2022/04/12 02:20:07;;;;;;;10.80;5.43;;;5.90;99.90;;;;;;4920430;29;20107;-77
2022/04/12 02:22:32;;;;;;;9.90;5.25;;;5.90;99.90;;;;;;4920757;29;20048;-77
2022/04/12 02:24:58;;;;;;;9.63;5.18;;;5.80;99.90;;;;;;4920336;29;20042;-77
2022/04/12 02:27:23;;;;;;;9.57;4.75;;;5.90;99.90;;;;;;4903235;29;20048;-77
2022/04/12 02:29:49;;;;;;;8.05;5.10;;;5.80;99.90;;;;;;4920389;29;20047;-77
2022/04/12 02:32:15;;;;;;;9.15;4.95;;;5.80;99.90;;;;;;4903471;29;20054;-77
2022/04/12 02:34:40;;;;;;;9.43;5.32;;;5.80;99.90;;;;;;4903254;29;20481;-77
2022/04/12 02:37:06;;;;;;;9.70;5.50;;;5.80;99.90;;;;;;4902962;29;20044;-77
2022/04/12 02:39:32;;;;;;;10.13;5.18;;;5.80;99.90;;;;;;4919991;29;20048;-77
2022/04/12 02:41:57;;;;;;;8.38;5.28;;;5.80;99.90;;;;;;4899728;29;20064;-77
2022/04/12 02:44:23;;;;;;;9.52;6.05;;;5.80;99.90;;;;;;4884279;29;20056;-77
2022/04/12 02:46:48;;;;;;;10.10;4.95;;;5.80;99.90;;;;;;4884239;29;20048;-77
2022/04/12 02:49:14;;;;;;;13.38;6.00;;;5.80;99.90;;;;;;4901012;29;20051;-77
2022/04/12 02:51:40;;;;;;;10.15;5.40;;;5.70;99.90;;;;;;4884309;29;20040;-77
2022/04/12 02:54:05;;;;;;;10.40;5.60;;;5.80;99.90;;;;;;4884323;29;20053;-77
2022/04/12 02:56:31;;;;;;;8.55;5.70;;;5.80;99.90;;;;;;4884032;29;20489;-77
2022/04/12 02:58:56;;;;;;;9.85;5.90;;;5.80;99.90;;;;;;4899536;29;20052;-77
2022/04/12 03:01:22;;;;;;;11.15;5.47;;;5.70;99.90;;;;;;4884285;29;20048;-77
2022/04/12 03:03:48;;;;;;;9.30;5.05;;;5.70;99.90;;;;;;4899024;29;20543;-78
2022/04/12 03:06:13;;;;;;;10.82;5.53;;;5.70;99.90;;;;;;4899368;29;20389;-77
2022/04/12 03:08:39;;;;;;;10.82;5.93;;;5.80;99.90;;;;;;4899386;29;20050;-77
2022/04/12 03:11:05;;;;;;;8.18;6.00;;;5.80;99.90;;;;;;4900536;29;20051;-77
2022/04/12 03:13:30;;;;;;;13.23;5.90;;;5.70;99.90;;;;;;4883790;29;20044;-78
2022/04/12 03:15:56;;;;;;;9.02;5.82;;;5.70;99.90;;;;;;4884033;29;20056;-78
2022/04/12 03:18:21;;;;;;;10.63;6.47;;;5.70;99.90;;;;;;4900377;29;20051;-78
2022/04/12 03:20:51;;;;;;;10.80;5.90;;;5.70;99.90;;;;;;4900520;29;20040;-78
2022/04/12 03:23:17;;;;;;;9.23;5.82;;;5.70;99.90;;;;;;4900460;29;20076;-78
2022/04/12 03:25:43;;;;;;;10.48;6.53;;;5.70;99.90;;;;;;4900258;29;20053;-78
2022/04/12 03:28:09;;;;;;;10.15;6.00;;;5.70;99.90;;;;;;4883496;29;20051;-77
2022/04/12 03:30:35;;;;;;;11.52;6.13;;;5.60;99.90;;;;;;4900297;29;20048;-77
2022/04/12 03:33:01;;;;;;;10.52;6.10;;;5.60;99.90;;;;;;4883440;29;20131;-77
2022/04/12 03:35:26;;;;;;;9.73;6.28;;;5.60;99.90;;;;;;4883574;29;20133;-77
2022/04/12 03:37:52;;;;;;;11.00;6.40;;;5.60;99.90;;;;;;4899976;29;20048;-77
2022/04/12 03:40:18;;;;;;;10.48;6.00;;;5.60;99.90;;;;;;4903534;29;20464;-77
2022/04/12 03:42:44;;;;;;;10.25;6.65;;;5.60;99.90;;;;;;4918928;29;20500;-77
2022/04/12 03:45:10;;;;;;;9.35;6.13;;;5.60;99.90;;;;;;4902180;29;20098;-78
2022/04/12 03:47:36;;;;;;;11.10;6.18;;;5.60;99.90;;;;;;4901706;29;20476;-78
2022/04/12 03:50:02;;;;;;;9.18;6.45;;;5.60;99.90;;;;;;4901916;29;20044;-78
2022/04/12 03:52:28;;;;;;;10.00;6.18;;;5.60;99.90;;;;;;4901955;29;20092;-77
2022/04/12 03:54:53;;;;;;;9.60;6.43;;;5.60;99.90;;;;;;4901981;29;20056;-78
2022/04/12 03:57:19;;;;;;;11.43;6.78;;;5.50;99.90;;;;;;4901841;29;20056;-78
2022/04/12 03:59:45;;;;;;;10.80;6.38;;;5.50;99.90;;;;;;4918573;29;20408;-78
2022/04/12 04:02:10;;;;;;;11.38;6.53;;;5.50;99.90;;;;;;4901627;29;20043;-77
2022/04/12 04:04:36;;;;;;;16.73;7.32;;;5.50;99.90;;;;;;4918603;29;20139;-77
2022/04/12 04:07:02;;;;;;;10.40;6.93;;;5.50;99.90;;;;;;4918404;29;20424;-77
2022/04/12 04:09:27;;;;;;;9.95;6.63;;;5.50;99.90;;;;;;4901469;29;20103;-77
2022/04/12 04:11:53;;;;;;;14.63;6.90;;;5.50;99.90;;;;;;4918455;29;20051;-77
2022/04/12 04:14:18;;;;;;;10.15;6.75;;;5.50;99.90;;;;;;4918387;29;20047;-78
2022/04/12 04:16:44;;;;;;;14.90;7.43;;;5.50;99.90;;;;;;4901269;29;20048;-77
2022/04/12 04:19:10;;;;;;;12.57;7.00;;;5.50;99.90;;;;;;4901402;29;20051;-77
2022/04/12 04:21:39;;;;;;;10.25;6.50;;;5.50;99.90;;;;;;4901222;29;20048;-77
2022/04/12 04:24:05;;;;;;;10.73;6.78;;;5.50;99.90;;;;;;4901207;29;20052;-77
2022/04/12 04:26:31;;;;;;;11.15;7.38;;;5.50;99.90;;;;;;4901348;29;20128;-77
2022/04/12 04:28:57;;;;;;;12.00;7.20;;;5.50;99.90;;;;;;4918098;29;20044;-77
2022/04/12 04:31:23;;;;;;;14.30;6.90;;;5.50;99.90;;;;;;4918128;29;20044;-77
2022/04/12 04:33:48;;;;;;;13.40;7.53;;;5.60;99.90;;;;;;4900972;29;20086;-77
2022/04/12 04:36:14;;;;;;;11.85;7.53;;;5.60;99.90;;;;;;4917871;29;20040;-77
2022/04/12 04:38:40;;;;;;;13.80;7.75;;;5.60;99.90;;;;;;4917740;29;20098;-77
2022/04/12 04:41:05;;;;;;;11.65;7.43;;;5.60;99.90;;;;;;4900440;29;20143;-77
2022/04/12 04:43:31;;;;;;;13.32;7.05;;;5.60;99.90;;;;;;4900728;29;20059;-77
2022/04/12 04:45:56;;;;;;;14.20;7.50;;;5.60;99.90;;;;;;4917106;29;20178;-77
2022/04/12 04:48:22;;;;;;;12.27;7.30;;;5.60;99.90;;;;;;4899755;29;20116;-77
2022/04/12 04:50:48;;;;;;;13.05;7.25;;;5.50;99.90;;;;;;4900133;29;20484;-77
2022/04/12 04:53:14;;;;;;;13.52;8.35;;;5.60;99.90;;;;;;4900768;29;20039;-77
2022/04/12 04:55:42;;;;;;;16.15;8.05;;;5.60;99.90;;;;;;4900823;29;20382;-77
2022/04/12 04:58:09;;;;;;;13.65;7.57;;;5.60;99.90;;;;;;4900498;29;20060;-77
2022/04/12 05:00:34;;;;;;;13.07;7.68;;;5.60;99.90;;;;;;4900349;29;20052;-77
2022/04/12 05:03:02;;;;;;;12.63;7.35;;;5.60;99.90;;;;;;4917570;29;20051;-77
2022/04/12 05:05:28;;;;;;;14.63;7.38;;;5.60;99.90;;;;;;4917625;29;20128;-77
2022/04/12 05:07:55;;;;;;;11.50;7.75;;;5.60;99.90;;;;;;4917541;29;20115;-77
2022/04/12 05:10:29;;;;;;;13.35;7.50;;;5.70;99.90;;;;;;4900629;29;20526;-77
2022/04/12 05:12:55;;;;;;;;;;;5.70;99.90;;;;;;4901069;29;20056;-77
2022/04/12 05:15:20;;;;;;;14.13;7.30;;;5.80;99.90;;;;;;4917535;29;19923;-77
2022/04/12 05:17:51;;;;;;;10.38;6.75;;;5.80;99.90;;;;;;4900284;29;20052;-77
2022/04/12 05:20:18;;;;;;;12.07;7.65;;;5.80;99.90;;;;;;4917403;29;20044;-77
2022/04/12 05:22:43;;;;;;;11.52;7.72;;;5.80;99.90;;;;;;4917175;29;20048;-77
2022/04/12 05:25:09;;;;;;;13.38;7.78;;;5.80;99.90;;;;;;4900136;29;20052;-77
2022/04/12 05:27:35;;;;;;;10.70;7.13;;;5.80;99.90;;;;;;4918392;29;20087;-77
2022/04/12 05:30:03;;;;;;;12.95;7.97;;;5.90;99.90;;;;;;4921291;29;20036;-77
2022/04/12 05:32:29;;;;;;;11.95;7.18;;;5.90;99.90;;;;;;4904599;29;20433;-78
2022/04/12 05:34:54;;;;;;;10.88;7.38;;;6.00;99.90;;;;;;4921215;29;20480;-78
2022/04/12 05:37:20;;;;;;;10.68;7.00;;;6.00;99.90;;;;;;4920876;29;20040;-77
2022/04/12 05:39:46;;;;;;;12.13;7.32;;;6.10;99.90;;;;;;4920853;29;20488;-78
2022/04/12 05:42:11;;;;;;;12.30;7.18;;;6.20;99.90;;;;;;4903695;29;20489;-78
2022/04/12 05:44:37;;;;;;;12.27;7.40;;;6.30;99.90;;;;;;4920710;29;20044;-78
2022/04/12 05:47:04;;;;;;;11.20;6.40;;;6.40;99.90;;;;;;4920765;29;20044;-78
2022/04/12 05:49:30;;;;;;;12.80;7.50;;;6.40;99.90;;;;;;4920750;29;20044;-78
2022/04/12 05:51:56;;;;;;;13.00;7.70;;;6.50;99.90;;;;;;4903778;29;20056;-78
2022/04/12 05:54:23;;;;;;;15.38;7.72;;;6.50;99.90;;;;;;4920529;29;20499;-77
2022/04/12 05:57:07;;;;;;;10.82;7.43;;;6.50;99.90;;;;;;4920873;29;20188;-79
2022/04/12 05:59:33;;;;;;;12.82;7.82;;;6.60;99.90;;;;;;4903990;29;20512;-81
2022/04/12 06:01:58;;;;;;;11.55;7.35;;;6.60;99.90;;;;;;4920588;29;20079;-78
2022/04/12 06:04:24;;;;;;;13.23;7.78;;;6.60;99.90;;;;;;4920617;29;20052;-79
2022/04/12 06:06:50;;;;;;;10.02;7.22;;;6.60;99.90;;;;;;4913719;29;20130;-78
2022/04/12 06:09:15;;;;;;;12.07;7.30;;;6.60;99.90;;;;;;4902704;29;20055;-78
2022/04/12 06:11:41;;;;;;;12.98;7.93;;;6.60;99.90;;;;;;4901514;29;20053;-79
2022/04/12 06:14:06;;;;;;;12.13;7.78;;;6.70;99.90;;;;;;4901256;29;20044;-78
2022/04/12 06:16:32;;;;;;;11.20;7.28;;;6.70;99.90;;;;;;4901426;29;20056;-78
2022/04/12 06:18:58;;;;;;;12.75;7.38;;;6.70;99.90;;;;;;4884323;29;20132;-79
2022/04/12 06:21:24;;;;;;;12.88;7.57;;;6.70;99.90;;;;;;4901051;29;20108;-78
2022/04/12 06:23:49;;;;;;;11.80;7.75;;;6.80;99.90;;;;;;4910096;29;20472;-78
2022/04/12 06:26:15;;;;;;;11.68;7.65;;;6.80;99.90;;;;;;4919684;29;20051;-78
2022/04/12 06:28:40;;;;;;;11.18;7.70;;;6.80;99.90;;;;;;4920021;29;20051;-77
2022/04/12 06:31:06;;;;;;;12.45;7.70;;;6.80;99.90;;;;;;4919753;29;20052;-77
2022/04/12 06:33:32;;;;;;;11.45;7.35;;;6.80;99.90;;;;;;4918565;29;20044;-81
2022/04/12 06:35:58;;;;;;;12.43;7.88;;;6.90;99.90;;;;;;4917999;29;20088;-79
2022/04/12 06:38:23;;;;;;;14.82;8.45;;;7.00;99.90;;;;;;4901058;29;20052;-78
2022/04/12 06:40:49;;;;;;;12.20;7.85;;;7.00;99.90;;;;;;4901814;29;20060;-78
2022/04/12 06:43:16;;;;;;;13.32;8.23;;;7.10;99.90;;;;;;4919683;29;20059;-78
2022/04/12 06:45:42;;;;;;;10.32;7.32;;;7.10;99.90;;;;;;4902835;29;20141;-77
2022/04/12 06:48:08;;;;;;;14.18;8.18;;;7.20;99.90;;;;;;4919799;29;20087;-77
2022/04/12 06:50:34;;;;;;;13.43;8.02;;;7.20;99.90;;;;;;4902791;29;20052;-78
2022/04/12 06:53:03;;;;;;;11.30;7.38;;;7.30;99.90;;;;;;4919513;29;20119;-78
2022/04/12 06:55:29;;;;;;;13.50;7.90;;;7.20;99.90;;;;;;4919852;29;20060;-78
2022/04/12 06:57:56;;;;;;;13.38;8.18;;;7.30;99.90;;;;;;4919600;29;20045;-78
2022/04/12 07:00:22;;;;;;;12.88;7.95;;;7.30;99.90;;;;;;4902475;29;20052;-78
2022/04/12 07:02:48;;;;;;;12.43;8.13;;;7.30;99.90;;;;;;4902807;29;20127;-78
2022/04/12 07:05:14;;;;;;;12.68;8.25;;;7.30;99.90;;;;;;4902595;29;20116;-78
2022/04/12 07:07:41;;;;;;;12.32;8.10;;;7.30;99.90;;;;;;4919633;29;20453;-78
2022/04/12 07:10:11;;;;;;;13.75;8.18;;;7.40;99.90;;;;;;4902338;29;20399;-78
2022/04/12 07:12:37;;;;;;;14.40;7.45;;;7.50;99.90;;;;;;4919213;29;20079;-79
2022/04/12 07:15:04;;;;;;;11.18;7.45;;;7.50;99.90;;;;;;4919426;29;20048;-78
2022/04/12 07:17:30;;;;;;;13.68;8.32;;;7.60;99.90;;;;;;4919186;29;20052;-78
2022/04/12 07:19:56;;;;;;;14.07;8.13;;;7.70;99.90;;;;;;4919043;29;20571;-78
2022/04/12 07:22:22;;;;;;;12.75;8.02;;;7.80;99.90;;;;;;4919394;29;20072;-78
2022/04/12 07:24:47;;;;;;;13.68;8.52;;;7.90;99.90;;;;;;4919275;29;20383;-78
2022/04/12 07:27:13;;;;;;;11.30;7.47;;;8.10;99.90;;;;;;4919272;29;20044;-78
2022/04/12 07:29:39;;;;;;;13.10;8.93;;;8.20;99.90;;;;;;4902324;29;20057;-78
2022/04/12 07:32:05;;;;;;;13.68;9.25;;;8.40;99.90;;;;;;4918819;29;20045;-78
2022/04/12 07:34:31;;;;;;;11.43;8.32;;;8.60;99.90;;;;;;4901849;29;20040;-78
2022/04/12 07:36:56;;;;;;;12.05;8.82;;;8.70;99.90;;;;;;4918712;29;20048;-78
2022/04/12 07:39:23;;;;;;;14.50;8.27;;;8.90;99.90;;;;;;4919016;29;20131;-78
2022/04/12 07:41:51;;;;;;;14.23;8.55;;;9.10;99.90;;;;;;4918587;29;20107;-78
2022/04/12 07:44:18;;;;;;;12.95;8.75;;;9.30;99.90;;;;;;4918741;29;20047;-78
2022/04/12 07:46:44;;;;;;;12.48;8.43;;;9.50;99.90;;;;;;4901903;29;20436;-78
2022/04/12 07:49:10;;;;;;;14.13;8.90;;;9.80;99.90;;;;;;4901789;29;20126;-78
2022/04/12 07:51:36;;;;;;;11.38;7.95;;;9.90;99.90;;;;;;4918138;29;20472;-78
2022/04/12 07:54:03;;;;;;;12.38;8.25;;;10.10;99.90;;;;;;4918711;29;20063;-78
2022/04/12 07:56:30;;;;;;;13.88;8.13;;;10.30;99.90;;;;;;4918172;29;20481;-78
2022/04/12 07:58:55;;;;;;;11.27;8.27;;;10.30;99.90;;;;;;4900756;29;20107;-78
2022/04/12 08:01:21;;;;;;;11.40;7.82;;;10.40;99.90;;;;;;4918576;29;20037;-78
2022/04/12 08:03:47;;;;;;;14.27;8.45;;;10.50;99.90;;;;;;4918531;29;20048;-78
2022/04/12 08:06:12;;;;;;;11.32;8.05;;;10.60;99.90;;;;;;4901268;29;20048;-78
2022/04/12 08:08:39;;;;;;;12.90;8.88;;;10.70;99.90;;;;;;4901559;29;20052;-78
2022/04/12 08:11:05;;;;;;;12.60;8.50;;;10.90;99.90;;;;;;4918213;29;20048;-78
2022/04/12 08:13:31;;;;;;;12.27;8.40;;;11.10;99.90;;;;;;4901202;29;20055;-78
2022/04/12 08:15:57;;;;;;;11.35;7.97;;;11.20;99.90;;;;;;4918358;29;20127;-78
2022/04/12 08:18:23;;;;;;;12.20;8.95;;;11.30;99.90;;;;;;4901188;29;20052;-78
2022/04/12 08:20:49;;;;;;;12.27;9.07;;;11.30;99.90;;;;;;4917960;29;20527;-78
2022/04/12 08:23:16;;;;;;;12.02;8.50;;;11.40;99.90;;;;;;4918253;29;20063;-78
2022/04/12 08:25:42;;;;;;;10.90;8.57;;;11.60;99.90;;;;;;4900996;29;20052;-78
2022/04/12 08:28:09;;;;;;;12.82;9.25;;;11.60;99.90;;;;;;4901256;29;20500;-78
2022/04/12 08:30:35;;;;;;;11.82;8.63;;;11.70;99.90;;;;;;4917849;29;20068;-78
2022/04/12 08:33:02;;;;;;;14.10;9.30;;;11.80;99.90;;;;;;4900745;29;20052;-78
2022/04/12 08:35:28;;;;;;;13.57;9.07;;;11.80;99.90;;;;;;4901157;29;20051;-78
2022/04/12 08:37:54;;;;;;;12.13;8.18;;;11.90;99.90;;;;;;4917894;29;20040;-78
2022/04/12 08:40:20;;;;;;;11.75;8.55;;;11.90;99.90;;;;;;4900581;29;20063;-78
2022/04/12 08:42:47;;;;;;;12.30;8.52;;;11.90;99.90;;;;;;4917576;29;20084;-78
2022/04/12 08:45:13;;;;;;;11.38;9.15;;;11.80;99.90;;;;;;4900851;29;20064;-78
2022/04/12 08:47:40;;;;;;;12.57;8.75;;;11.80;99.90;;;;;;4917890;29;20061;-78
2022/04/12 08:50:08;;;;;;;13.15;9.25;;;12.00;99.90;;;;;;4900856;29;20137;-78
2022/04/12 08:52:35;;;;;;;14.20;8.55;;;12.20;99.90;;;;;;4900770;29;20075;-78
2022/04/12 08:55:01;;;;;;;12.15;8.60;;;12.30;99.90;;;;;;4917746;29;20048;-78
2022/04/12 08:57:27;;;;;;;12.00;9.32;;;12.50;99.90;;;;;;4900639;29;20485;-78
2022/04/12 08:59:53;;;;;;;12.60;8.80;;;12.50;99.90;;;;;;4917538;29;20087;-78
2022/04/12 09:02:19;;;;;;;11.30;8.52;;;12.70;99.90;;;;;;4916927;29;20202;-79
2022/04/12 09:04:45;;;;;;;14.73;8.75;;;12.80;99.90;;;;;;4917531;29;20055;-78
2022/04/12 09:07:11;;;;;;;12.32;8.65;;;12.80;99.90;;;;;;4917548;29;20036;-78
2022/04/12 09:09:42;;;;;;;12.70;8.13;;;12.90;99.90;;;;;;4900375;29;20048;-78
2022/04/12 09:12:13;;;;;;;14.68;8.82;;;13.00;99.90;;;;;;4900352;29;20400;-78
2022/04/12 09:14:40;;;;;;;14.68;9.15;;;13.10;99.90;;;;;;4900517;29;20055;-78
2022/04/12 09:17:13;;;;;;;11.38;8.95;;;13.00;99.90;;;;;;4900416;29;20048;-78
2022/04/12 09:19:47;;;;;;;11.73;8.35;;;13.00;99.90;;;;;;4917532;29;20051;-78
2022/04/12 09:22:21;;;;;;;14.40;9.40;;;13.20;99.90;;;;;;4900224;29;20058;-78
2022/04/12 09:24:49;;;;;;;12.20;8.38;;;13.10;99.90;;;;;;4900469;29;20044;-78
2022/04/12 09:27:16;;;;;;;14.30;9.15;;;13.20;99.90;;;;;;4917380;29;20052;-78
2022/04/12 09:29:44;;;;;;;13.70;10.77;;;13.30;99.90;;;;;;4900460;29;20040;-78
2022/04/12 09:32:13;;;;;;;13.32;8.70;;;13.50;99.90;;;;;;4917313;29;20048;-78
2022/04/12 09:34:40;;;;;;;12.32;8.35;;;13.80;99.90;;;;;;4900028;29;20139;-78
2022/04/12 09:37:20;;;;;;;13.43;9.30;;;13.90;99.90;;;;;;4917185;29;20058;-78
2022/04/12 09:39:55;;;;;;;11.10;8.80;;;14.00;99.90;;;;;;4900372;29;20492;-78
2022/04/12 09:42:45;;;;;;;12.27;9.15;;;14.10;99.90;;;;;;4917277;29;20048;-78
2022/04/12 09:45:13;;;;;;;13.77;9.88;;;14.10;99.90;;;;;;4916926;29;20492;-78
2022/04/12 09:47:40;;;;;;;12.95;9.77;;;14.00;99.90;;;;;;4900281;29;20048;-78
2022/04/12 09:50:07;;;;;;;11.63;9.10;;;13.90;99.90;;;;;;4900256;29;20111;-78
2022/04/12 09:52:33;;;;;;;13.68;9.20;;;14.10;99.90;;;;;;4917166;29;20127;-78
2022/04/12 09:54:59;;;;;;;11.43;9.10;;;14.40;99.90;;;;;;4899906;29;20192;-78
2022/04/12 09:57:25;;;;;;;13.25;9.23;;;14.50;99.90;;;;;;4917047;29;20096;-78
2022/04/12 09:59:56;;;;;;;14.25;9.80;;;14.70;99.90;;;;;;4917004;29;20408;-77
2022/04/12 10:02:28;;;;;;;12.02;8.90;;;14.80;99.90;;;;;;4916836;29;20040;-78
2022/04/12 10:04:55;;;;;;;12.30;9.48;;;15.00;99.90;;;;;;4917062;29;20070;-78
2022/04/12 10:07:23;;;;;;;11.13;8.77;;;15.20;99.90;;;;;;4899833;29;20520;-77
2022/04/12 10:09:50;;;;;;;11.60;8.85;;;15.10;99.90;;;;;;4916994;29;20126;-78
2022/04/12 10:12:17;;;;;;;12.32;9.35;;;15.10;99.90;;;;;;4900087;29;20055;-78
2022/04/12 10:14:44;;;;;;;11.48;9.63;;;15.00;99.90;;;;;;4919491;29;20083;-77
2022/04/12 10:17:11;;;;;;;12.52;9.90;;;14.90;99.90;;;;;;4920156;29;20135;-77
2022/04/12 10:19:38;;;;;;;12.05;10.30;;;15.10;99.90;;;;;;4920416;29;20044;-77
2022/04/12 10:22:04;;;;;;;12.75;9.20;;;15.00;99.90;;;;;;4903385;29;20488;-77
2022/04/12 10:24:30;;;;;;;11.43;9.23;;;15.00;99.90;;;;;;4920219;29;20059;-77
2022/04/12 10:26:57;;;;;;;13.38;9.30;;;15.20;99.90;;;;;;4920318;29;20040;-77
2022/04/12 10:29:23;;;;;;;13.70;10.27;;;15.30;99.90;;;;;;4919969;29;20131;-77
2022/04/12 10:32:02;;;;;;;12.43;9.52;;;15.20;99.90;;;;;;4920325;29;20080;-77
2022/04/12 10:34:27;;;;;;;13.80;9.45;;;15.40;99.90;;;;;;4903133;29;20123;-77
2022/04/12 10:37:05;;;;;;;13.00;9.85;;;15.40;99.90;;;;;;4920207;29;20131;-78
2022/04/12 10:39:32;;;;;;;13.55;9.85;;;15.60;99.90;;;;;;4903100;29;20052;-77
2022/04/12 10:42:01;;;;;;;12.75;9.63;;;15.70;99.90;;;;;;4902687;29;20052;-77
2022/04/12 10:44:27;;;;;;;14.93;10.45;;;15.80;99.90;;;;;;4919735;29;20468;-77
2022/04/12 10:46:56;;;;;;;13.60;10.60;;;16.00;99.90;;;;;;4903008;29;20545;-78
2022/04/12 10:49:22;;;;;;;12.68;9.93;;;15.90;99.90;;;;;;4902759;29;20048;-78
2022/04/12 10:52:00;;;;;;;12.55;9.85;;;16.00;99.90;;;;;;4919925;29;20100;-78
2022/04/12 10:54:35;;;;;;;11.68;9.38;;;16.10;99.90;;;;;;4919666;29;20552;-77
2022/04/12 10:57:16;;;;;;;13.18;10.35;;;16.30;99.90;;;;;;4919760;29;20044;-77
2022/04/12 10:59:48;;;;;;;12.43;10.00;;;16.40;99.90;;;;;;4919779;29;20119;-77
2022/04/12 11:02:14;;;;;;;13.33;10.87;;;16.40;99.90;;;;;;4902816;29;20056;-77
2022/04/12 11:04:40;;;;;;;12.30;10.60;;;16.20;99.90;;;;;;4919498;29;20288;-77
2022/04/12 11:07:09;;;;;;;14.70;11.75;;;16.40;99.90;;;;;;4902658;29;20051;-77
2022/04/12 11:09:35;;;;;;;13.30;10.35;;;16.40;99.90;;;;;;4919573;29;20131;-77
2022/04/12 11:12:03;;;;;;;13.23;10.60;;;16.40;99.90;;;;;;4902678;29;20131;-77
2022/04/12 11:14:38;;;;;;;15.68;10.45;;;16.40;99.90;;;;;;4919509;29;20210;-77
2022/04/12 11:17:14;;;;;;;14.70;11.82;;;16.40;99.90;;;;;;4919450;29;20177;-77
2022/04/12 11:19:50;;;;;;;13.13;10.88;;;16.60;99.90;;;;;;4902109;29;20063;-77
2022/04/12 11:22:18;;;;;;;13.85;11.48;;;16.60;99.90;;;;;;4919192;29;20404;-77
2022/04/12 11:25:12;;;;;;;14.07;10.85;;;16.70;99.90;;;;;;4918714;29;20044;-77
2022/04/12 11:27:38;;;;;;;13.70;10.93;;;16.60;99.90;;;;;;4919128;29;20518;-77
2022/04/12 11:30:04;;;;;;;12.77;10.88;;;16.60;99.90;;;;;;4919178;29;20036;-77
2022/04/12 11:32:32;;;;;;;13.07;10.32;;;16.70;99.90;;;;;;4919203;29;20055;-77
2022/04/12 11:34:59;;;;;;;15.10;12.18;;;16.80;99.90;;;;;;4902061;29;20103;-77
2022/04/12 11:37:25;;;;;;;15.20;10.75;;;16.80;99.90;;;;;;4918840;29;20040;-77
2022/04/12 11:39:51;;;;;;;16.42;11.35;;;16.90;99.90;;;;;;4918841;29;20139;-77
2022/04/12 11:42:16;;;;;;;14.75;11.48;;;16.90;99.90;;;;;;4901638;29;20131;-77
2022/04/12 11:44:53;;;;;;;14.00;11.52;;;16.80;99.90;;;;;;4918746;29;20060;-77
2022/04/12 11:47:19;;;;;;;17.17;11.50;;;16.90;99.90;;;;;;4902069;29;20054;-77
2022/04/12 11:49:45;;;;;;;16.45;10.93;;;16.90;99.90;;;;;;4918811;29;20140;-77
2022/04/12 11:52:13;;;;;;;14.30;11.32;;;16.90;99.90;;;;;;4918491;29;20072;-77
2022/04/12 11:54:41;;;;;;;15.43;11.50;;;16.90;99.90;;;;;;4918555;29;20071;-77
2022/04/12 11:57:10;;;;;;;14.23;10.98;;;16.80;99.90;;;;;;4901690;29;20052;-77
2022/04/12 11:59:45;;;;;;;15.55;11.23;;;16.80;99.90;;;;;;4918407;29;20055;-77
2022/04/12 12:02:13;;;;;;;14.82;10.35;;;16.80;99.90;;;;;;4918350;29;20503;-77
2022/04/12 12:04:46;;;;;;;12.98;10.45;;;16.80;99.90;;;;;;4901393;29;20381;-77
2022/04/12 12:07:11;;;;;;;;;;;17.00;99.90;;;;;;4918709;29;20547;-77
2022/04/12 12:09:39;;;;;;;15.38;10.55;;;17.00;99.90;;;;;;4918498;29;19963;-77
2022/04/12 12:12:11;;;;;;;12.55;9.70;;;17.10;99.90;;;;;;4901225;29;20055;-77
2022/04/12 12:14:37;;;;;;;;;;;17.10;99.90;;;;;;4901838;29;20449;-77
2022/04/12 12:17:04;;;;;;;14.98;10.43;;;17.10;99.90;;;;;;4901179;29;20390;-77
2022/04/12 12:19:33;;;;;;;13.10;10.18;;;17.20;99.90;;;;;;4900985;29;20052;-77
2022/04/12 12:22:02;;;;;;;13.75;10.23;;;17.40;99.90;;;;;;4900993;29;20270;-77
2022/04/12 12:24:29;;;;;;;14.23;10.70;;;17.40;99.90;;;;;;4901342;29;20056;-77
2022/04/12 12:26:57;;;;;;;15.25;11.48;;;17.50;99.90;;;;;;4918263;29;20152;-77
2022/04/12 12:29:26;;;;;;;15.60;13.40;;;17.40;99.90;;;;;;4917844;29;20480;-77
2022/04/12 12:31:57;;;;;;;15.05;12.15;;;17.30;99.90;;;;;;4918078;29;20048;-77
2022/04/12 12:34:34;;;;;;;14.45;10.55;;;17.30;99.90;;;;;;4918029;29;20079;-77
2022/04/12 12:37:10;;;;;;;16.02;11.30;;;17.30;99.90;;;;;;4918041;29;20047;-77
2022/04/12 12:39:40;;;;;;;15.00;12.02;;;17.40;99.90;;;;;;4918241;29;20044;-77
2022/04/12 12:42:08;;;;;;;16.88;11.15;;;17.30;99.90;;;;;;4917306;29;20048;-77
2022/04/12 12:44:36;;;;;;;13.95;11.02;;;17.30;99.90;;;;;;4900764;29;20104;-77
2022/04/12 12:47:04;;;;;;;14.00;9.82;;;17.40;99.90;;;;;;4900829;29;20122;-77